sensor_id;sensor_type;location;lat;lon;timestamp;pressure;altitude;pressure_sealevel;temperature;humidity
7524;BME280;3803;51.666;7.630;2023-01-25T00:00:06;103135.44;;;3.16;55.24
7524;BME280;3803;51.666;7.630;2023-01-25T00:00:28;103136.47;;;3.18;55.24
7524;BME280;3803;51.666;7.630;2023-01-25T00:00:48;103124.50;;;3.10;55.13
7524;BME280;3803;51.666;7.630;2023-01-25T00:01:09;103118.59;;;3.11;54.88
7524;BME280;3803;51.666;7.630;2023-01-25T00:01:30;103124.81;;;3.13;55.18
7524;BME280;3803;51.666;7.630;2023-01-25T00:01:51;103123.75;;;3.11;55.15
7524;BME280;3803;51.666;7.630;2023-01-25T00:02:12;103122.25;;;3.13;54.85
7524;BME280;3803;51.666;7.630;2023-01-25T00:02:32;103132.56;;;3.13;54.88
7524;BME280;3803;51.666;7.630;2023-01-25T00:02:53;103120.13;;;3.09;54.77
7524;BME280;3803;51.666;7.630;2023-01-25T00:03:13;103125.59;;;3.12;54.77
7524;BME280;3803;51.666;7.630;2023-01-25T00:03:34;103132.84;;;3.16;54.86
7524;BME280;3803;51.666;7.630;2023-01-25T00:03:54;103123.75;;;3.11;54.68
7524;BME280;3803;51.666;7.630;2023-01-25T00:04:15;103113.59;;;3.04;55.08
7524;BME280;3803;51.666;7.630;2023-01-25T00:04:36;103120.72;;;3.06;55.02
7524;BME280;3803;51.666;7.630;2023-01-25T00:05:09;103118.31;;;3.08;54.85
7524;BME280;3803;51.666;7.630;2023-01-25T00:05:29;103116.34;;;3.05;55.02
7524;BME280;3803;51.666;7.630;2023-01-25T00:05:58;103110.13;;;3.03;55.07
7524;BME280;3803;51.666;7.630;2023-01-25T00:06:19;103126.19;;;3.09;54.90
7524;BME280;3803;51.666;7.630;2023-01-25T00:06:40;103113.91;;;3.07;55.19
7524;BME280;3803;51.666;7.630;2023-01-25T00:07:00;103104.97;;;3.03;54.88
7524;BME280;3803;51.666;7.630;2023-01-25T00:07:22;103115.56;;;3.06;54.97
7524;BME280;3803;51.666;7.630;2023-01-25T00:07:43;103108.59;;;3.05;55.05
7524;BME280;3803;51.666;7.630;2023-01-25T00:08:04;103111.78;;;3.03;54.87
7524;BME280;3803;51.666;7.630;2023-01-25T00:08:24;103118.31;;;3.08;54.73
7524;BME280;3803;51.666;7.630;2023-01-25T00:08:51;103112.84;;;3.05;55.15
7524;BME280;3803;51.666;7.630;2023-01-25T00:09:12;103126.47;;;3.12;54.76
7524;BME280;3803;51.666;7.630;2023-01-25T00:09:33;103111.94;;;3.04;54.98
7524;BME280;3803;51.666;7.630;2023-01-25T00:09:53;103108.44;;;3.04;54.85
7524;BME280;3803;51.666;7.630;2023-01-25T00:10:14;103111.31;;;3.07;54.94
7524;BME280;3803;51.666;7.630;2023-01-25T00:10:35;103107.69;;;3.05;55.25
7524;BME280;3803;51.666;7.630;2023-01-25T00:10:55;103105.84;;;3.04;54.87
7524;BME280;3803;51.666;7.630;2023-01-25T00:11:16;103113.59;;;3.04;55.10
7524;BME280;3803;51.666;7.630;2023-01-25T00:11:37;103112.53;;;3.01;55.21
7524;BME280;3803;51.666;7.630;2023-01-25T00:11:58;103121.94;;;3.10;55.24
7524;BME280;3803;51.666;7.630;2023-01-25T00:12:18;103103.16;;;3.02;55.13
7524;BME280;3803;51.666;7.630;2023-01-25T00:12:40;103118.59;;;3.11;55.19
7524;BME280;3803;51.666;7.630;2023-01-25T00:13:01;103110.25;;;3.13;54.69
7524;BME280;3803;51.666;7.630;2023-01-25T00:13:22;103107.31;;;3.19;54.63
7524;BME280;3803;51.666;7.630;2023-01-25T00:13:42;103103.09;;;3.20;54.80
7524;BME280;3803;51.666;7.630;2023-01-25T00:14:04;103106.09;;;3.24;54.74
7524;BME280;3803;51.666;7.630;2023-01-25T00:14:25;103118.22;;;3.34;54.56
7524;BME280;3803;51.666;7.630;2023-01-25T00:14:45;103104.13;;;3.31;54.83
7524;BME280;3803;51.666;7.630;2023-01-25T00:15:06;103114.88;;;3.35;54.71
7524;BME280;3803;51.666;7.630;2023-01-25T00:15:27;103106.09;;;3.33;54.38
7524;BME280;3803;51.666;7.630;2023-01-25T00:15:48;103113.22;;;3.36;54.62
7524;BME280;3803;51.666;7.630;2023-01-25T00:16:08;103110.66;;;3.36;54.05
7524;BME280;3803;51.666;7.630;2023-01-25T00:16:31;103123.22;;;3.41;54.38
7524;BME280;3803;51.666;7.630;2023-01-25T00:16:52;103113.34;;;3.37;54.34
7524;BME280;3803;51.666;7.630;2023-01-25T00:17:13;103107.28;;;3.37;54.36
7524;BME280;3803;51.666;7.630;2023-01-25T00:17:33;103110.34;;;3.33;54.20
7524;BME280;3803;51.666;7.630;2023-01-25T00:17:54;103104.28;;;3.32;54.01
7524;BME280;3803;51.666;7.630;2023-01-25T00:18:14;103104.56;;;3.35;54.43
7524;BME280;3803;51.666;7.630;2023-01-25T00:18:35;103108.06;;;3.36;54.08
7524;BME280;3803;51.666;7.630;2023-01-25T00:18:55;103103.63;;;3.35;53.99
7524;BME280;3803;51.666;7.630;2023-01-25T00:19:16;103110.94;;;3.39;54.18
7524;BME280;3803;51.666;7.630;2023-01-25T00:19:37;103109.28;;;3.31;54.08
7524;BME280;3803;51.666;7.630;2023-01-25T00:19:58;103108.97;;;3.27;54.10
7524;BME280;3803;51.666;7.630;2023-01-25T00:20:18;103110.50;;;3.25;54.38
7524;BME280;3803;51.666;7.630;2023-01-25T00:20:39;103101.59;;;3.13;54.48
7524;BME280;3803;51.666;7.630;2023-01-25T00:21:17;103105.25;;;3.06;54.81
7524;BME280;3803;51.666;7.630;2023-01-25T00:21:38;103117.53;;;3.09;54.76
7524;BME280;3803;51.666;7.630;2023-01-25T00:21:59;103099.66;;;3.01;55.17
7524;BME280;3803;51.666;7.630;2023-01-25T00:22:25;103121.81;;;3.08;55.03
7524;BME280;3803;51.666;7.630;2023-01-25T00:22:46;103104.97;;;3.03;54.93
7524;BME280;3803;51.666;7.630;2023-01-25T00:23:07;103096.00;;;2.99;54.59
7524;BME280;3803;51.666;7.630;2023-01-25T00:23:27;103103.16;;;3.02;55.12
7524;BME280;3803;51.666;7.630;2023-01-25T00:23:49;103112.69;;;3.03;55.32
7524;BME280;3803;51.666;7.630;2023-01-25T00:24:18;103101.94;;;2.98;55.14
7524;BME280;3803;51.666;7.630;2023-01-25T00:24:42;103105.56;;;3.00;55.12
7524;BME280;3803;51.666;7.630;2023-01-25T00:25:03;103098.00;;;2.93;55.31
7524;BME280;3803;51.666;7.630;2023-01-25T00:25:23;103105.56;;;3.00;55.14
7524;BME280;3803;51.666;7.630;2023-01-25T00:25:44;103095.25;;;3.00;54.92
7524;BME280;3803;51.666;7.630;2023-01-25T00:26:05;103096.63;;;2.97;55.11
7524;BME280;3803;51.666;7.630;2023-01-25T00:26:26;103104.69;;;3.00;55.16
7524;BME280;3803;51.666;7.630;2023-01-25T00:26:48;103097.38;;;2.96;55.08
7524;BME280;3803;51.666;7.630;2023-01-25T00:27:10;103101.34;;;3.01;54.99
7524;BME280;3803;51.666;7.630;2023-01-25T00:27:31;103098.31;;;2.96;55.41
7524;BME280;3803;51.666;7.630;2023-01-25T00:27:52;103098.59;;;2.99;54.99
7524;BME280;3803;51.666;7.630;2023-01-25T00:28:13;103103.00;;;3.00;55.42
7524;BME280;3803;51.666;7.630;2023-01-25T00:28:37;103100.25;;;2.99;55.20
7524;BME280;3803;51.666;7.630;2023-01-25T00:28:57;103090.72;;;2.89;55.44
7524;BME280;3803;51.666;7.630;2023-01-25T00:29:18;103097.22;;;2.94;55.59
7524;BME280;3803;51.666;7.630;2023-01-25T00:30:58;103107.69;;;3.05;55.29
7524;BME280;3803;51.666;7.630;2023-01-25T00:32:40;103096.47;;;2.95;55.54
7524;BME280;3803;51.666;7.630;2023-01-25T00:34:01;103114.22;;;3.01;55.41
7524;BME280;3803;51.666;7.630;2023-01-25T00:34:49;103108.75;;;2.98;55.26
7524;BME280;3803;51.666;7.630;2023-01-25T00:35:11;103096.47;;;2.95;55.45
7524;BME280;3803;51.666;7.630;2023-01-25T00:35:33;103100.41;;;3.00;55.39
7524;BME280;3803;51.666;7.630;2023-01-25T00:35:55;103089.22;;;2.91;55.42
7524;BME280;3803;51.666;7.630;2023-01-25T00:36:43;103091.03;;;2.92;55.00
7524;BME280;3803;51.666;7.630;2023-01-25T00:37:46;103086.47;;;2.90;55.46
7524;BME280;3803;51.666;7.630;2023-01-25T00:38:27;103090.56;;;2.96;55.42
7524;BME280;3803;51.666;7.630;2023-01-25T00:38:52;103091.63;;;2.98;55.35
7524;BME280;3803;51.666;7.630;2023-01-25T00:39:12;103084.81;;;2.90;55.35
7524;BME280;3803;51.666;7.630;2023-01-25T00:39:33;103084.03;;;2.91;55.26
7524;BME280;3803;51.666;7.630;2023-01-25T00:39:54;103080.69;;;2.92;55.71
7524;BME280;3803;51.666;7.630;2023-01-25T00:40:15;103096.00;;;2.99;55.19
7524;BME280;3803;51.666;7.630;2023-01-25T00:40:35;103080.69;;;2.92;55.34
7524;BME280;3803;51.666;7.630;2023-01-25T00:40:56;103082.34;;;2.92;55.41
7524;BME280;3803;51.666;7.630;2023-01-25T00:41:18;103078.88;;;2.91;55.49
7524;BME280;3803;51.666;7.630;2023-01-25T00:41:39;103086.03;;;2.94;55.45
7524;BME280;3803;51.666;7.630;2023-01-25T00:42:00;103093.16;;;2.96;55.28
7524;BME280;3803;51.666;7.630;2023-01-25T00:42:20;103080.69;;;2.92;55.36
7524;BME280;3803;51.666;7.630;2023-01-25T00:42:41;103072.53;;;2.87;55.71
7524;BME280;3803;51.666;7.630;2023-01-25T00:43:02;103078.72;;;2.90;55.27
7524;BME280;3803;51.666;7.630;2023-01-25T00:43:26;103080.69;;;2.92;55.62
7524;BME280;3803;51.666;7.630;2023-01-25T00:43:46;103071.91;;;2.90;55.19
7524;BME280;3803;51.666;7.630;2023-01-25T00:44:07;103073.72;;;2.91;55.65
7524;BME280;3803;51.666;7.630;2023-01-25T00:44:28;103075.38;;;2.91;55.67
7524;BME280;3803;51.666;7.630;2023-01-25T00:44:48;103088.00;;;2.96;55.17
7524;BME280;3803;51.666;7.630;2023-01-25T00:45:11;103073.72;;;2.91;55.67
7524;BME280;3803;51.666;7.630;2023-01-25T00:45:32;103078.13;;;2.92;55.47
7524;BME280;3803;51.666;7.630;2023-01-25T00:45:59;103081.75;;;2.94;55.48
7524;BME280;3803;51.666;7.630;2023-01-25T00:46:20;103076.16;;;2.90;55.52
7524;BME280;3803;51.666;7.630;2023-01-25T00:46:41;103088.72;;;2.95;55.67
7524;BME280;3803;51.666;7.630;2023-01-25T00:47:01;103080.09;;;2.95;55.68
7524;BME280;3803;51.666;7.630;2023-01-25T00:47:22;103088.88;;;2.97;55.78
7524;BME280;3803;51.666;7.630;2023-01-25T00:47:42;103070.09;;;2.89;55.76
7524;BME280;3803;51.666;7.630;2023-01-25T00:48:03;103074.34;;;2.89;55.47
7524;BME280;3803;51.666;7.630;2023-01-25T00:48:25;103071.59;;;2.87;55.57
7524;BME280;3803;51.666;7.630;2023-01-25T00:48:46;103077.84;;;2.89;55.87
7524;BME280;3803;51.666;7.630;2023-01-25T00:49:18;103079.66;;;2.90;55.55
7524;BME280;3803;51.666;7.630;2023-01-25T00:49:41;103068.41;;;2.90;55.78
7524;BME280;3803;51.666;7.630;2023-01-25T00:50:02;103080.53;;;2.91;55.55
7524;BME280;3803;51.666;7.630;2023-01-25T00:50:22;103078.59;;;2.88;55.65
7524;BME280;3803;51.666;7.630;2023-01-25T00:50:43;103077.06;;;2.90;55.76
7524;BME280;3803;51.666;7.630;2023-01-25T00:51:04;103085.69;;;2.91;55.54
7524;BME280;3803;51.666;7.630;2023-01-25T00:51:24;103086.47;;;2.90;55.64
7524;BME280;3803;51.666;7.630;2023-01-25T00:51:45;103074.94;;;2.86;55.66
7524;BME280;3803;51.666;7.630;2023-01-25T00:52:06;103079.66;;;2.90;55.66
7524;BME280;3803;51.666;7.630;2023-01-25T00:52:27;103081.75;;;2.94;55.28
7524;BME280;3803;51.666;7.630;2023-01-25T00:52:48;103069.78;;;2.86;55.57
7524;BME280;3803;51.666;7.630;2023-01-25T00:53:09;103072.84;;;2.82;55.58
7524;BME280;3803;51.666;7.630;2023-01-25T00:53:29;103071.31;;;2.84;55.70
7524;BME280;3803;51.666;7.630;2023-01-25T00:53:50;103073.88;;;2.84;55.58
7524;BME280;3803;51.666;7.630;2023-01-25T00:54:11;103085.56;;;2.89;55.38
7524;BME280;3803;51.666;7.630;2023-01-25T00:54:32;103076.75;;;2.87;55.40
7524;BME280;3803;51.666;7.630;2023-01-25T00:54:53;103086.34;;;2.88;55.41
7524;BME280;3803;51.666;7.630;2023-01-25T00:55:14;103061.59;;;2.81;55.70
7524;BME280;3803;51.666;7.630;2023-01-25T00:55:35;103062.84;;;2.76;55.38
7524;BME280;3803;51.666;7.630;2023-01-25T00:55:55;103074.66;;;2.83;55.67
7524;BME280;3803;51.666;7.630;2023-01-25T00:56:16;103075.44;;;2.82;55.54
7524;BME280;3803;51.666;7.630;2023-01-25T00:56:37;103069.50;;;2.83;55.60
7524;BME280;3803;51.666;7.630;2023-01-25T00:56:57;103077.53;;;2.86;55.36
7524;BME280;3803;51.666;7.630;2023-01-25T00:57:19;103072.06;;;2.83;55.22
7524;BME280;3803;51.666;7.630;2023-01-25T00:57:40;103076.03;;;2.88;55.46
7524;BME280;3803;51.666;7.630;2023-01-25T00:58:15;103058.88;;;2.80;55.38
7524;BME280;3803;51.666;7.630;2023-01-25T00:58:36;103058.59;;;2.77;55.46
7524;BME280;3803;51.666;7.630;2023-01-25T00:59:01;103064.66;;;2.77;55.66
7524;BME280;3803;51.666;7.630;2023-01-25T00:59:23;103061.94;;;2.76;55.44
7524;BME280;3803;51.666;7.630;2023-01-25T00:59:44;103071.03;;;2.81;55.51
7524;BME280;3803;51.666;7.630;2023-01-25T01:00:08;103066.94;;;2.74;55.45
7524;BME280;3803;51.666;7.630;2023-01-25T01:00:29;103062.69;;;2.75;55.49
7524;BME280;3803;51.666;7.630;2023-01-25T01:00:52;103081.63;;;2.84;55.84
7524;BME280;3803;51.666;7.630;2023-01-25T01:01:13;103061.00;;;2.75;55.69
7524;BME280;3803;51.666;7.630;2023-01-25T01:01:35;103066.59;;;2.80;55.72
7524;BME280;3803;51.666;7.630;2023-01-25T01:01:55;103059.19;;;2.74;55.69
7524;BME280;3803;51.666;7.630;2023-01-25T01:02:16;103080.59;;;2.82;55.77
7524;BME280;3803;51.666;7.630;2023-01-25T01:02:37;103065.56;;;2.78;55.97
7524;BME280;3803;51.666;7.630;2023-01-25T01:03:02;103061.75;;;2.74;55.86
7524;BME280;3803;51.666;7.630;2023-01-25T01:03:23;103064.66;;;2.77;55.73
7524;BME280;3803;51.666;7.630;2023-01-25T01:03:44;103054.19;;;2.76;55.61
7524;BME280;3803;51.666;7.630;2023-01-25T01:04:05;103063.75;;;2.77;55.48
7524;BME280;3803;51.666;7.630;2023-01-25T01:04:26;103061.44;;;2.80;55.90
7524;BME280;3803;51.666;7.630;2023-01-25T01:05:01;103067.69;;;2.82;55.85
7524;BME280;3803;51.666;7.630;2023-01-25T01:05:25;103059.63;;;2.79;56.05
7524;BME280;3803;51.666;7.630;2023-01-25T01:05:47;103074.34;;;2.89;56.10
7524;BME280;3803;51.666;7.630;2023-01-25T01:07:23;103066.44;;;2.87;55.74
7524;BME280;3803;51.666;7.630;2023-01-25T01:07:48;103070.38;;;2.92;55.97
7524;BME280;3803;51.666;7.630;2023-01-25T01:08:10;103074.16;;;2.96;56.14
7524;BME280;3803;51.666;7.630;2023-01-25T01:08:33;103063.13;;;2.88;55.89
7524;BME280;3803;51.666;7.630;2023-01-25T01:08:56;103066.75;;;2.90;55.90
7524;BME280;3803;51.666;7.630;2023-01-25T01:09:18;103067.19;;;2.86;55.83
7524;BME280;3803;51.666;7.630;2023-01-25T01:09:38;103065.38;;;2.85;55.78
7524;BME280;3803;51.666;7.630;2023-01-25T01:09:59;103072.69;;;2.89;55.65
7524;BME280;3803;51.666;7.630;2023-01-25T01:10:20;103077.41;;;2.84;56.08
7524;BME280;3803;51.666;7.630;2023-01-25T01:10:40;103060.41;;;2.78;55.66
7524;BME280;3803;51.666;7.630;2023-01-25T01:11:03;103070.56;;;2.85;56.00
7524;BME280;3803;51.666;7.630;2023-01-25T01:11:24;103065.22;;;2.83;55.87
7524;BME280;3803;51.666;7.630;2023-01-25T01:11:45;103077.84;;;2.89;55.49
7524;BME280;3803;51.666;7.630;2023-01-25T01:12:05;103078.28;;;2.85;56.02
7524;BME280;3803;51.666;7.630;2023-01-25T01:12:26;103064.03;;;2.80;55.78
7524;BME280;3803;51.666;7.630;2023-01-25T01:12:47;103069.19;;;2.80;55.64
7524;BME280;3803;51.666;7.630;2023-01-25T01:13:08;103071.91;;;2.81;55.96
7524;BME280;3803;51.666;7.630;2023-01-25T01:13:29;103060.88;;;2.73;55.84
7524;BME280;3803;51.666;7.630;2023-01-25T01:13:50;103074.34;;;2.80;56.14
7524;BME280;3803;51.666;7.630;2023-01-25T01:14:11;103066.47;;;2.78;55.96
7524;BME280;3803;51.666;7.630;2023-01-25T01:14:32;103076.47;;;2.84;55.56
7524;BME280;3803;51.666;7.630;2023-01-25T01:14:52;103060.88;;;2.73;55.83
7524;BME280;3803;51.666;7.630;2023-01-25T01:15:13;103066.31;;;2.77;55.70
7524;BME280;3803;51.666;7.630;2023-01-25T01:15:36;103067.09;;;2.76;55.65
7524;BME280;3803;51.666;7.630;2023-01-25T01:16:00;103075.44;;;2.82;55.38
7524;BME280;3803;51.666;7.630;2023-01-25T01:16:24;103061.03;;;2.66;55.79
7524;BME280;3803;51.666;7.630;2023-01-25T01:16:46;103068.28;;;2.70;55.57
7524;BME280;3803;51.666;7.630;2023-01-25T01:17:07;103056.78;;;2.67;56.00
7524;BME280;3803;51.666;7.630;2023-01-25T01:17:27;103071.78;;;2.71;55.83
7524;BME280;3803;51.666;7.630;2023-01-25T01:17:48;103069.81;;;2.68;55.77
7524;BME280;3803;51.666;7.630;2023-01-25T01:18:09;103069.06;;;2.69;56.01
7524;BME280;3803;51.666;7.630;2023-01-25T01:18:34;103062.84;;;2.67;55.89
7524;BME280;3803;51.666;7.630;2023-01-25T01:18:55;103059.50;;;2.68;55.92
7524;BME280;3803;51.666;7.630;2023-01-25T01:19:26;103063.13;;;2.70;55.87
7524;BME280;3803;51.666;7.630;2023-01-25T01:19:47;103080.41;;;2.80;55.64
7524;BME280;3803;51.666;7.630;2023-01-25T01:20:08;103070.44;;;2.75;55.58
7524;BME280;3803;51.666;7.630;2023-01-25T01:20:28;103070.59;;;2.76;55.60
7524;BME280;3803;51.666;7.630;2023-01-25T01:20:50;103065.72;;;2.70;56.09
7524;BME280;3803;51.666;7.630;2023-01-25T01:21:12;103069.50;;;2.74;56.11
7524;BME280;3803;51.666;7.630;2023-01-25T01:21:32;103072.25;;;2.76;56.01
7524;BME280;3803;51.666;7.630;2023-01-25T01:21:53;103078.88;;;2.82;56.01
7524;BME280;3803;51.666;7.630;2023-01-25T01:22:14;103077.69;;;2.79;55.90
7524;BME280;3803;51.666;7.630;2023-01-25T01:22:35;103059.78;;;2.71;55.75
7524;BME280;3803;51.666;7.630;2023-01-25T01:22:56;103060.56;;;2.70;55.73
7524;BME280;3803;51.666;7.630;2023-01-25T01:23:16;103062.38;;;2.71;55.90
7524;BME280;3803;51.666;7.630;2023-01-25T01:23:38;103069.50;;;2.74;55.56
7524;BME280;3803;51.666;7.630;2023-01-25T01:23:58;103076.78;;;2.78;55.79
7524;BME280;3803;51.666;7.630;2023-01-25T01:24:19;103059.78;;;2.71;55.66
7524;BME280;3803;51.666;7.630;2023-01-25T01:24:40;103064.94;;;2.71;55.52
7524;BME280;3803;51.666;7.630;2023-01-25T01:25:02;103076.31;;;2.82;55.66
7524;BME280;3803;51.666;7.630;2023-01-25T01:25:24;103068.59;;;2.73;55.86
7524;BME280;3803;51.666;7.630;2023-01-25T01:25:45;103068.00;;;2.76;55.90
7524;BME280;3803;51.666;7.630;2023-01-25T01:26:09;103068.75;;;2.75;55.70
7524;BME280;3803;51.666;7.630;2023-01-25T01:26:30;103064.34;;;2.74;55.91
7524;BME280;3803;51.666;7.630;2023-01-25T01:26:51;103063.28;;;2.72;55.85
7524;BME280;3803;51.666;7.630;2023-01-25T01:27:12;103061.00;;;2.75;55.71
7524;BME280;3803;51.666;7.630;2023-01-25T01:27:32;103067.09;;;2.76;55.53
7524;BME280;3803;51.666;7.630;2023-01-25T01:27:53;103063.59;;;2.75;55.60
7524;BME280;3803;51.666;7.630;2023-01-25T01:28:13;103067.84;;;2.75;56.03
7524;BME280;3803;51.666;7.630;2023-01-25T01:28:35;103079.38;;;2.78;55.70
7524;BME280;3803;51.666;7.630;2023-01-25T01:28:58;103073.16;;;2.67;56.00
7524;BME280;3803;51.666;7.630;2023-01-25T01:29:19;103068.28;;;2.70;55.76
7524;BME280;3803;51.666;7.630;2023-01-25T01:29:40;103075.59;;;2.75;56.10
7524;BME280;3803;51.666;7.630;2023-01-25T01:30:00;103070.59;;;2.76;55.98
7524;BME280;3803;51.666;7.630;2023-01-25T01:30:21;103070.88;;;2.70;55.93
7524;BME280;3803;51.666;7.630;2023-01-25T01:30:41;103063.00;;;2.69;56.19
7524;BME280;3803;51.666;7.630;2023-01-25T01:31:09;103067.41;;;2.70;55.64
7524;BME280;3803;51.666;7.630;2023-01-25T01:31:33;103071.34;;;2.66;56.03
7524;BME280;3803;51.666;7.630;2023-01-25T01:32:03;103081.19;;;2.70;56.11
7524;BME280;3803;51.666;7.630;2023-01-25T01:32:24;103076.63;;;2.68;55.73
7524;BME280;3803;51.666;7.630;2023-01-25T01:32:45;103068.44;;;2.63;56.08
7524;BME280;3803;51.666;7.630;2023-01-25T01:33:06;103078.31;;;2.67;55.62
7524;BME280;3803;51.666;7.630;2023-01-25T01:33:27;103073.00;;;2.66;55.69
7524;BME280;3803;51.666;7.630;2023-01-25T01:33:49;103080.75;;;2.75;55.93
7524;BME280;3803;51.666;7.630;2023-01-25T01:34:12;103085.56;;;2.71;55.84
7524;BME280;3803;51.666;7.630;2023-01-25T01:34:34;103072.41;;;2.68;55.72
7524;BME280;3803;51.666;7.630;2023-01-25T01:34:55;103066.19;;;2.66;55.90
7524;BME280;3803;51.666;7.630;2023-01-25T01:35:16;103069.66;;;2.67;55.88
7524;BME280;3803;51.666;7.630;2023-01-25T01:35:36;103079.81;;;2.74;55.94
7524;BME280;3803;51.666;7.630;2023-01-25T01:35:57;103072.69;;;2.71;55.52
7524;BME280;3803;51.666;7.630;2023-01-25T01:36:19;103084.53;;;2.78;55.58
7524;BME280;3803;51.666;7.630;2023-01-25T01:36:40;103074.53;;;2.72;55.69
7524;BME280;3803;51.666;7.630;2023-01-25T01:37:01;103082.56;;;2.76;55.67
7524;BME280;3803;51.666;7.630;2023-01-25T01:37:21;103082.56;;;2.76;55.57
7524;BME280;3803;51.666;7.630;2023-01-25T01:37:42;103090.44;;;2.77;55.51
7524;BME280;3803;51.666;7.630;2023-01-25T01:38:03;103072.56;;;2.70;55.56
7524;BME280;3803;51.666;7.630;2023-01-25T01:38:24;103074.22;;;2.69;55.43
7524;BME280;3803;51.666;7.630;2023-01-25T01:38:45;103078.94;;;2.73;55.81
7524;BME280;3803;51.666;7.630;2023-01-25T01:39:05;103070.44;;;2.66;55.31
7524;BME280;3803;51.666;7.630;2023-01-25T01:39:26;103073.16;;;2.67;55.65
7524;BME280;3803;51.666;7.630;2023-01-25T01:39:47;103068.63;;;2.65;55.70
7524;BME280;3803;51.666;7.630;2023-01-25T01:40:13;103071.63;;;2.69;55.54
7524;BME280;3803;51.666;7.630;2023-01-25T01:40:34;103078.94;;;2.65;55.63
7524;BME280;3803;51.666;7.630;2023-01-25T01:40:54;103076.34;;;2.65;55.57
7524;BME280;3803;51.666;7.630;2023-01-25T01:41:15;103068.31;;;2.62;55.29
7524;BME280;3803;51.666;7.630;2023-01-25T01:41:36;103074.38;;;2.62;55.73
7524;BME280;3803;51.666;7.630;2023-01-25T01:41:58;103070.16;;;2.63;55.38
7524;BME280;3803;51.666;7.630;2023-01-25T01:42:19;103079.69;;;2.64;55.68
7524;BME280;3803;51.666;7.630;2023-01-25T01:42:59;103092.72;;;2.74;55.65
7524;BME280;3803;51.666;7.630;2023-01-25T01:43:22;103067.41;;;2.61;55.63
7524;BME280;3803;51.666;7.630;2023-01-25T01:43:44;103086.34;;;2.70;55.72
7524;BME280;3803;51.666;7.630;2023-01-25T01:44:05;103081.66;;;2.66;55.81
7524;BME280;3803;51.666;7.630;2023-01-25T01:44:45;103095.31;;;2.65;55.92
7524;BME280;3803;51.666;7.630;2023-01-25T01:45:47;103091.97;;;2.66;55.51
7524;BME280;3803;51.666;7.630;2023-01-25T01:46:50;103088.03;;;2.70;55.96
7524;BME280;3803;51.666;7.630;2023-01-25T01:47:18;103072.25;;;2.67;55.56
7524;BME280;3803;51.666;7.630;2023-01-25T01:47:43;103077.72;;;2.61;55.60
7524;BME280;3803;51.666;7.630;2023-01-25T01:48:12;103069.81;;;2.59;55.67
7524;BME280;3803;51.666;7.630;2023-01-25T01:48:48;103085.00;;;2.65;55.74
7524;BME280;3803;51.666;7.630;2023-01-25T01:49:25;103092.28;;;2.61;55.68
7524;BME280;3803;51.666;7.630;2023-01-25T01:49:55;103074.41;;;2.53;55.60
7524;BME280;3803;51.666;7.630;2023-01-25T01:50:22;103073.47;;;2.53;55.68
7524;BME280;3803;51.666;7.630;2023-01-25T01:50:57;103080.28;;;2.61;55.95
7524;BME280;3803;51.666;7.630;2023-01-25T01:51:21;103091.66;;;2.63;55.92
7524;BME280;3803;51.666;7.630;2023-01-25T01:52:25;103072.72;;;2.54;55.69
7524;BME280;3803;51.666;7.630;2023-01-25T01:52:48;103067.56;;;2.54;55.38
7524;BME280;3803;51.666;7.630;2023-01-25T01:53:09;103085.28;;;2.59;55.70
7524;BME280;3803;51.666;7.630;2023-01-25T01:53:32;103063.00;;;2.51;55.68
7524;BME280;3803;51.666;7.630;2023-01-25T01:53:57;103080.28;;;2.61;55.71
7524;BME280;3803;51.666;7.630;2023-01-25T01:54:51;103071.19;;;2.56;55.47
7524;BME280;3803;51.666;7.630;2023-01-25T01:55:18;103074.84;;;2.58;55.83
7524;BME280;3803;51.666;7.630;2023-01-25T01:55:42;103070.47;;;2.57;55.94
7524;BME280;3803;51.666;7.630;2023-01-25T01:56:05;103067.56;;;2.54;55.64
7524;BME280;3803;51.666;7.630;2023-01-25T01:56:35;103068.59;;;2.56;55.39
7524;BME280;3803;51.666;7.630;2023-01-25T01:57:01;103060.31;;;2.50;55.74
7524;BME280;3803;51.666;7.630;2023-01-25T01:57:33;103081.81;;;2.59;56.02
7524;BME280;3803;51.666;7.630;2023-01-25T01:57:56;103072.41;;;2.59;55.40
7524;BME280;3803;51.666;7.630;2023-01-25T01:58:19;103072.28;;;2.58;55.58
7524;BME280;3803;51.666;7.630;2023-01-25T01:58:41;103077.72;;;2.61;55.55
7524;BME280;3803;51.666;7.630;2023-01-25T01:59:27;103082.72;;;2.59;55.43
7524;BME280;3803;51.666;7.630;2023-01-25T02:00:19;103077.09;;;2.55;56.15
7524;BME280;3803;51.666;7.630;2023-01-25T02:00:42;103062.72;;;2.48;56.00
7524;BME280;3803;51.666;7.630;2023-01-25T02:01:03;103053.00;;;2.45;55.85
7524;BME280;3803;51.666;7.630;2023-01-25T02:01:23;103064.38;;;2.48;55.76
7524;BME280;3803;51.666;7.630;2023-01-25T02:01:44;103065.75;;;2.53;55.86
7524;BME280;3803;51.666;7.630;2023-01-25T02:02:05;103070.75;;;2.51;55.59
7524;BME280;3803;51.666;7.630;2023-01-25T02:02:26;103053.47;;;2.50;55.98
7524;BME280;3803;51.666;7.630;2023-01-25T02:02:48;103053.63;;;2.52;55.89
7524;BME280;3803;51.666;7.630;2023-01-25T02:03:25;103066.50;;;2.61;56.00
7524;BME280;3803;51.666;7.630;2023-01-25T02:03:46;103054.06;;;2.56;55.87
7524;BME280;3803;51.666;7.630;2023-01-25T02:04:08;103059.50;;;2.59;55.77
7524;BME280;3803;51.666;7.630;2023-01-25T02:04:29;103056.81;;;2.58;56.04
7524;BME280;3803;51.666;7.630;2023-01-25T02:04:52;103049.84;;;2.57;55.80
7524;BME280;3803;51.666;7.630;2023-01-25T02:05:26;103072.13;;;2.65;55.90
7524;BME280;3803;51.666;7.630;2023-01-25T02:05:54;103069.22;;;2.62;56.15
7524;BME280;3803;51.666;7.630;2023-01-25T02:06:53;103056.63;;;2.56;56.26
7524;BME280;3803;51.666;7.630;2023-01-25T02:07:20;103054.22;;;2.58;56.03
7524;BME280;3803;51.666;7.630;2023-01-25T02:07:44;103061.47;;;2.62;55.89
7524;BME280;3803;51.666;7.630;2023-01-25T02:08:08;103056.03;;;2.59;55.96
7524;BME280;3803;51.666;7.630;2023-01-25T02:08:33;103058.91;;;2.62;56.03
7524;BME280;3803;51.666;7.630;2023-01-25T02:08:56;103058.91;;;2.62;55.80
7524;BME280;3803;51.666;7.630;2023-01-25T02:09:21;103057.09;;;2.61;55.86
7524;BME280;3803;51.666;7.630;2023-01-25T02:09:43;103064.06;;;2.62;55.64
7524;BME280;3803;51.666;7.630;2023-01-25T02:10:06;103069.06;;;2.69;55.79
7524;BME280;3803;51.666;7.630;2023-01-25T02:10:29;103066.19;;;2.66;56.11
7524;BME280;3803;51.666;7.630;2023-01-25T02:10:50;103066.31;;;2.68;55.79
7524;BME280;3803;51.666;7.630;2023-01-25T02:11:11;103059.06;;;2.64;55.63
7524;BME280;3803;51.666;7.630;2023-01-25T02:11:32;103065.59;;;2.69;55.90
7524;BME280;3803;51.666;7.630;2023-01-25T02:11:55;103062.25;;;2.61;55.93
7524;BME280;3803;51.666;7.630;2023-01-25T02:12:17;103053.47;;;2.59;55.89